Time;durP1;ratioP1;P1;durP2;ratioP2;P2;SDS_P1;SDS_P2;PMS_P1;PMS_P2;Temp;Humidity;BMP_temperature;BMP_pressure;BME280_temperature;BME280_humidity;BME280_pressure;Samples;Min_cycle;Max_cycle;Signal;HPM_P1;HPM_P2
2022/12/13 00:00:00;;;;;;;11.27;6.40;;;;;;;18.04;31.66;101118.06;5037542;28;20039;-67
2022/12/13 00:02:25;;;;;;;10.15;5.88;;;;;;;18.02;31.54;101115.53;5023325;28;20080;-68
2022/12/13 00:04:50;;;;;;;10.03;5.57;;;;;;;18.00;31.83;101109.56;5023235;28;20029;-66
2022/12/13 00:07:15;;;;;;;8.97;6.23;;;;;;;17.98;31.63;101108.84;5022781;28;20726;-66
2022/12/13 00:09:42;;;;;;;9.65;6.57;;;;;;;18.00;31.99;101108.72;5022905;28;20251;-67
2022/12/13 00:12:07;;;;;;;8.95;5.95;;;;;;;17.98;31.98;101114.09;5022974;28;20120;-66
2022/12/13 00:14:32;;;;;;;12.05;6.40;;;;;;;17.97;31.75;101108.94;5022858;28;20056;-68
2022/12/13 00:16:57;;;;;;;10.77;6.72;;;;;;;17.93;31.68;101108.34;5023065;28;20103;-67
2022/12/13 00:19:23;;;;;;;11.55;6.80;;;;;;;17.92;31.75;101104.84;5021788;28;20043;-67
2022/12/13 00:21:49;;;;;;;9.38;6.18;;;;;;;17.92;32.00;101104.84;5022522;28;20037;-66
2022/12/13 00:24:14;;;;;;;9.48;6.07;;;;;;;17.89;31.66;101105.09;5021525;28;20029;-66
2022/12/13 00:26:40;;;;;;;10.35;6.40;;;;;;;17.81;31.51;101083.72;5021910;28;20411;-67
2022/12/13 00:29:06;;;;;;;9.90;6.32;;;;;;;17.87;31.81;101098.25;5021289;28;20493;-67
2022/12/13 00:31:32;;;;;;;9.65;6.40;;;;;;;17.78;31.79;101097.13;5021872;28;20119;-66
2022/12/13 00:33:58;;;;;;;9.93;6.18;;;;;;;17.84;31.77;101103.75;5021915;28;20167;-69
2022/12/13 00:36:24;;;;;;;11.25;5.80;;;;;;;17.83;31.56;101104.69;5020683;28;20088;-65
2022/12/13 00:39:01;;;;;;;10.82;6.70;;;;;;;17.81;31.48;101101.34;5021653;28;20065;-67
2022/12/13 00:41:34;;;;;;;10.30;6.15;;;;;;;17.79;31.86;101098.00;5022278;28;20065;-67
2022/12/13 00:44:00;;;;;;;9.38;6.20;;;;;;;17.80;31.51;101103.16;5020970;28;20068;-66
2022/12/13 00:46:27;;;;;;;11.75;5.63;;;;;;;17.79;31.58;101098.81;5021702;28;20041;-66
2022/12/13 00:48:55;;;;;;;11.93;6.53;;;;;;;17.76;31.51;101097.25;5021038;28;20837;-66
2022/12/13 00:51:22;;;;;;;11.15;6.00;;;;;;;17.73;31.63;101094.84;5020869;28;20099;-66
2022/12/13 00:53:48;;;;;;;10.52;6.03;;;;;;;17.74;31.53;101099.16;5020893;28;20128;-66
2022/12/13 00:56:16;;;;;;;11.23;6.40;;;;;;;17.70;31.67;101087.16;5020920;28;20120;-67
2022/12/13 00:58:42;;;;;;;10.52;6.25;;;;;;;17.72;31.48;101095.81;5019752;28;20047;-68
2022/12/13 01:01:10;;;;;;;16.00;6.32;;;;;;;17.69;31.39;101085.50;5021696;28;20033;-67
2022/12/13 01:03:37;;;;;;;9.95;6.05;;;;;;;17.66;31.45;101088.38;5021953;28;20040;-67
2022/12/13 01:06:16;;;;;;;10.77;5.75;;;;;;;17.66;31.69;101082.25;5020128;28;20045;-67
2022/12/13 01:08:42;;;;;;;12.05;6.50;;;;;;;17.65;31.32;101094.56;5003746;28;20041;-68
2022/12/13 01:11:08;;;;;;;10.57;5.43;;;;;;;17.65;31.82;101093.75;5021829;28;20108;-67
2022/12/13 01:13:34;;;;;;;10.75;6.20;;;;;;;17.63;31.53;101090.41;5021261;28;20473;-66
2022/12/13 01:16:03;;;;;;;10.15;6.45;;;;;;;17.62;31.40;101078.16;5021566;28;20040;-66
2022/12/13 01:18:28;;;;;;;11.02;6.03;;;;;;;17.62;31.64;101081.63;5021650;28;20033;-67
2022/12/13 01:21:03;;;;;;;10.82;5.88;;;;;;;17.59;31.44;101079.22;5021023;28;20036;-66
2022/12/13 01:23:29;;;;;;;9.55;5.65;;;;;;;17.55;31.29;101076.00;5021498;28;20037;-67
2022/12/13 01:25:55;;;;;;;9.57;6.20;;;;;;;17.57;31.62;101081.16;5020896;28;20053;-66
2022/12/13 01:28:21;;;;;;;10.68;5.88;;;;;;;17.55;31.36;101075.16;5021460;28;20481;-67
2022/12/13 01:30:55;;;;;;;10.52;6.30;;;;;;;17.56;31.47;101079.44;5020540;28;20474;-65
2022/12/13 01:33:21;;;;;;;10.13;5.60;;;;;;;17.53;31.26;101075.28;5021419;28;20828;-65
2022/12/13 01:35:46;;;;;;;10.73;6.03;;;;;;;17.51;31.27;101077.16;5021118;28;20050;-65
2022/12/13 01:38:11;;;;;;;11.75;6.18;;;;;;;17.53;31.37;101087.59;5021207;28;20037;-67
2022/12/13 01:40:45;;;;;;;10.90;5.90;;;;;;;17.51;31.53;101087.69;5020411;28;20493;-66
2022/12/13 01:43:13;;;;;;;12.10;6.05;;;;;;;17.49;31.39;101088.78;5012924;28;20116;-66
2022/12/13 01:45:38;;;;;;;11.88;5.70;;;;;;;17.48;31.21;101089.72;5020889;28;20040;-66
2022/12/13 01:48:11;;;;;;;11.73;6.05;;;;;;;17.47;31.37;101093.34;5020072;28;20037;-68
2022/12/13 01:50:43;;;;;;;11.07;6.18;;;;;;;17.44;31.59;101088.28;5021205;28;20045;-68
2022/12/13 01:53:16;;;;;;;10.75;6.60;;;;;;;17.44;31.40;101096.19;5020558;28;20036;-67
2022/12/13 01:55:44;;;;;;;10.77;5.85;;;;;;;17.41;31.40;101084.91;5020890;28;20115;-67
2022/12/13 01:58:12;;;;;;;10.07;5.97;;;;;;;17.45;31.48;101097.88;5020827;28;20037;-67
2022/12/13 02:00:38;;;;;;;9.95;5.78;;;;;;;17.40;31.51;101085.88;5021069;28;20037;-67
2022/12/13 02:03:04;;;;;;;10.63;5.82;;;;;;;17.41;31.56;101094.63;5020919;28;20449;-68
2022/12/13 02:05:35;;;;;;;10.00;6.20;;;;;;;17.40;31.42;101085.88;5021207;28;20398;-66
2022/12/13 02:08:01;;;;;;;11.43;5.85;;;;;;;17.41;31.48;101092.00;5020997;28;20040;-66
2022/12/13 02:10:28;;;;;;;9.63;5.65;;;;;;;17.38;31.62;101084.31;5019751;28;20048;-66
2022/12/13 02:12:53;;;;;;;9.70;5.88;;;;;;;17.34;31.35;101078.44;5020282;28;20482;-66
2022/12/13 02:15:19;;;;;;;10.63;6.47;;;;;;;17.34;31.54;101083.69;5020820;28;20029;-67
2022/12/13 02:18:26;;;;;;;10.07;5.70;;;;;;;17.36;31.62;101081.78;5020698;28;20099;-67
2022/12/13 02:21:06;;;;;;;11.60;6.20;;;;;;;17.35;31.43;101085.38;5006888;28;20059;-65
2022/12/13 02:24:01;;;;;;;10.30;5.50;;;;;;;17.36;31.35;101083.59;5020792;28;20064;-66
2022/12/13 02:26:35;;;;;;;10.38;5.57;;;;;;;17.33;31.23;101084.66;5020353;28;20044;-66
2022/12/13 02:29:15;;;;;;;9.48;5.93;;;;;;;17.33;31.48;101084.66;5020680;28;20111;-65
2022/12/13 02:32:00;;;;;;;8.70;5.60;;;;;;;17.31;31.39;101088.38;5020249;28;20041;-65
2022/12/13 02:34:34;;;;;;;10.23;5.97;;;;;;;17.32;31.65;101087.41;5020699;28;20029;-65
2022/12/13 02:37:11;;;;;;;9.38;6.00;;;;;;;17.32;31.57;101085.63;5020882;28;20111;-66
2022/12/13 02:39:52;;;;;;;9.38;5.63;;;;;;;17.29;31.53;101072.69;5020862;28;20485;-66
2022/12/13 02:42:39;;;;;;;9.57;5.80;;;;;;;17.29;31.59;101074.44;5020656;28;20033;-67
2022/12/13 02:45:13;;;;;;;12.45;6.60;;;;;;;17.32;31.75;101074.22;5019840;28;20045;-66
2022/12/13 02:47:42;;;;;;;10.80;6.10;;;;;;;17.32;31.67;101074.22;5020122;28;20747;-68
2022/12/13 02:50:10;;;;;;;10.07;5.78;;;;;;;17.30;31.86;101066.44;5020992;28;20099;-66
2022/12/13 02:52:39;;;;;;;9.05;5.82;;;;;;;17.32;31.55;101069.81;5024344;28;20080;-66
2022/12/13 02:55:12;;;;;;;10.20;5.75;;;;;;;17.30;31.59;101065.59;5023506;28;20033;-68
2022/12/13 02:57:40;;;;;;;9.63;5.63;;;;;;;17.33;31.55;101060.94;5023331;28;20091;-67
2022/12/13 03:00:14;;;;;;;9.00;5.10;;;;;;;17.33;31.92;101063.56;5023967;28;20036;-67
2022/12/13 03:03:03;;;;;;;9.65;5.75;;;;;;;17.34;31.82;101060.00;5024046;28;20068;-66
2022/12/13 03:08:55;;;;;;;11.60;5.93;;;;;;;17.35;31.81;101059.03;5023824;28;20051;-67
2022/12/13 03:11:24;;;;;;;10.45;5.63;;;;;;;17.35;32.08;101056.38;5022946;28;20040;-67
2022/12/13 03:14:01;;;;;;;11.65;6.18;;;;;;;17.35;32.12;101055.56;5023789;28;20029;-67
2022/12/13 03:16:35;;;;;;;10.93;6.68;;;;;;;17.34;31.79;101056.50;5023463;28;20030;-67
2022/12/13 03:19:04;;;;;;;10.82;6.00;;;;;;;17.35;31.74;101061.66;5022414;28;20549;-67
2022/12/13 03:21:40;;;;;;;10.63;6.50;;;;;;;17.36;32.00;101057.25;5023241;28;20049;-67
2022/12/13 03:24:06;;;;;;;10.43;5.80;;;;;;;17.36;31.92;101060.72;5023466;28;20075;-66
2022/12/13 03:26:32;;;;;;;8.70;5.60;;;;;;;17.38;32.09;101061.44;5023955;28;20408;-68
2022/12/13 03:28:57;;;;;;;8.98;5.68;;;;;;;17.37;31.90;101054.50;5023180;28;20025;-68
2022/12/13 03:31:23;;;;;;;9.35;5.75;;;;;;;17.39;31.90;101051.75;5023248;28;20512;-66
2022/12/13 03:33:48;;;;;;;11.45;5.35;;;;;;;17.38;32.11;101057.97;5022575;28;20029;-66
2022/12/13 03:36:15;;;;;;;9.77;5.97;;;;;;;17.41;32.27;101068.28;5023319;28;20046;-65
2022/12/13 03:38:40;;;;;;;9.20;5.15;;;;;;;17.37;32.08;101049.22;5022646;28;20041;-68
2022/12/13 03:41:09;;;;;;;10.02;5.93;;;;;;;17.38;32.01;101052.69;5023422;28;20037;-67
2022/12/13 03:43:34;;;;;;;9.98;5.53;;;;;;;17.41;31.89;101058.56;5023663;28;20040;-66
2022/12/13 03:46:00;;;;;;;10.13;5.65;;;;;;;17.40;31.99;101048.13;5023273;28;20029;-67
2022/12/13 03:48:25;;;;;;;10.02;5.82;;;;;;;17.39;31.92;101049.94;5023136;28;20477;-67
2022/12/13 03:50:52;;;;;;;9.75;5.57;;;;;;;17.38;32.04;101042.97;5022160;28;20036;-67
2022/12/13 03:53:18;;;;;;;10.93;5.88;;;;;;;17.38;32.14;101048.25;5022251;28;20034;-68
2022/12/13 03:55:43;;;;;;;10.63;5.93;;;;;;;17.39;32.29;101047.31;5022993;28;20041;-66
2022/12/13 03:58:09;;;;;;;9.63;5.78;;;;;;;17.41;31.97;101037.50;5023199;28;20037;-67
2022/12/13 04:00:34;;;;;;;11.07;5.95;;;;;;;17.40;32.17;101045.50;5037419;28;20470;-67
2022/12/13 04:02:59;;;;;;;9.55;5.50;;;;;;;17.44;32.16;101048.78;5021078;28;20048;-67
2022/12/13 04:05:24;;;;;;;9.20;5.45;;;;;;;17.41;32.03;101045.41;5022682;28;20067;-68
2022/12/13 04:07:50;;;;;;;9.45;5.55;;;;;;;17.43;31.94;101045.28;5022826;28;20466;-69
2022/12/13 04:10:15;;;;;;;8.85;5.38;;;;;;;17.39;31.81;101034.13;5022882;28;20029;-67
2022/12/13 04:15:25;;;;;;;10.25;5.75;;;;;;;17.40;32.40;101030.56;5022955;28;20040;-68
2022/12/13 04:17:51;;;;;;;8.48;5.93;;;;;;;17.41;32.35;101040.13;5022913;28;20385;-67
2022/12/13 04:20:16;;;;;;;11.00;5.50;;;;;;;17.40;32.05;101029.69;5022638;28;20041;-67
2022/12/13 04:22:41;;;;;;;10.02;5.60;;;;;;;17.43;32.08;101032.09;5022917;28;20034;-68
2022/12/13 04:25:07;;;;;;;7.35;5.22;;;;;;;17.43;32.16;101040.00;5022552;28;20025;-69
2022/12/13 04:27:32;;;;;;;9.93;5.53;;;;;;;17.40;32.20;101027.06;5022639;28;20082;-67
2022/12/13 04:29:58;;;;;;;9.07;5.53;;;;;;;17.44;32.33;101031.16;5022596;28;20041;-67
2022/12/13 04:32:23;;;;;;;11.43;5.70;;;;;;;17.43;32.08;101033.91;5022420;28;20038;-67
2022/12/13 04:34:48;;;;;;;8.35;5.43;;;;;;;17.40;32.27;101030.56;5022166;28;20465;-66
2022/12/13 04:37:13;;;;;;;10.75;5.85;;;;;;;17.41;32.34;101037.50;5022526;28;20042;-68
2022/12/13 04:39:39;;;;;;;8.23;5.22;;;;;;;17.40;32.11;101027.06;5022105;28;20031;-67
2022/12/13 04:42:04;;;;;;;10.63;5.57;;;;;;;17.41;32.33;101032.22;5022305;28;20036;-66
2022/12/13 04:44:30;;;;;;;11.15;5.65;;;;;;;17.40;32.10;101027.06;5022212;28;20030;-68
2022/12/13 04:46:56;;;;;;;8.27;5.30;;;;;;;17.43;32.29;101029.47;5022016;28;20064;-66
2022/12/13 04:49:21;;;;;;;11.30;5.55;;;;;;;17.40;32.13;101016.53;5021755;28;20037;-66
2022/12/13 04:51:46;;;;;;;9.25;5.55;;;;;;;17.40;32.17;101019.16;5022351;28;20072;-66
2022/12/13 04:54:11;;;;;;;8.95;5.82;;;;;;;17.42;32.22;101019.91;5022079;28;20456;-66
2022/12/13 04:56:37;;;;;;;10.93;6.00;;;;;;;17.40;32.20;101017.38;5022129;28;20029;-66
2022/12/13 04:59:03;;;;;;;10.07;5.82;;;;;;;17.39;32.31;101009.59;5022007;28;20457;-66
2022/12/13 05:01:28;;;;;;;8.43;5.32;;;;;;;17.42;32.40;101017.28;5021008;28;20541;-66
2022/12/13 05:03:53;;;;;;;8.98;5.07;;;;;;;17.43;32.33;101023.38;5021686;28;20519;-65
2022/12/13 05:06:19;;;;;;;12.23;5.80;;;;;;;17.32;31.91;101005.72;5021953;28;20039;-68
2022/12/13 05:08:44;;;;;;;10.02;5.05;;;;;;;17.39;31.87;101006.97;5021637;28;20608;-66
2022/12/13 05:11:10;;;;;;;9.65;6.05;;;;;;;17.41;32.21;101021.69;5021755;28;20048;-67
2022/12/13 05:13:35;;;;;;;10.27;4.90;;;;;;;17.39;32.01;101020.13;5021143;28;20485;-68
2022/12/13 05:16:03;;;;;;;13.88;6.63;;;;;;;17.41;32.04;101018.22;5021575;28;20033;-66
2022/12/13 05:18:29;;;;;;;8.20;5.13;;;;;;;17.39;31.87;101012.22;5021355;28;20481;-66
2022/12/13 05:20:55;;;;;;;9.27;5.68;;;;;;;17.40;32.10;101013.88;5021108;28;20086;-66
2022/12/13 05:23:23;;;;;;;8.80;5.80;;;;;;;17.38;31.98;101014.00;5021436;28;20099;-66
2022/12/13 05:25:50;;;;;;;9.10;5.65;;;;;;;17.39;32.05;101007.78;5020559;28;20033;-66
2022/12/13 05:28:15;;;;;;;8.70;5.20;;;;;;;17.38;32.24;101007.91;5020656;28;20132;-66
2022/12/13 05:30:41;;;;;;;9.68;5.25;;;;;;;17.37;32.01;101006.22;5021123;28;20136;-65
2022/12/13 05:33:08;;;;;;;8.38;5.32;;;;;;;17.40;31.86;101006.00;5020899;28;20123;-68
2022/12/13 05:35:33;;;;;;;8.35;5.10;;;;;;;17.39;32.30;100996.44;5021034;28;20050;-69
2022/12/13 05:37:58;;;;;;;9.10;5.40;;;;;;;17.39;32.76;100999.88;5021313;28;20031;-67
2022/12/13 05:40:26;;;;;;;10.25;5.43;;;;;;;17.43;32.93;101002.28;5020419;28;20022;-67
2022/12/13 05:42:52;;;;;;;7.53;4.68;;;;;;;17.47;33.30;100998.47;5021183;28;20405;-67
2022/12/13 05:45:18;;;;;;;7.90;4.63;;;;;;;17.50;33.57;101003.50;5020705;28;20047;-67
2022/12/13 05:47:44;;;;;;;7.88;4.53;;;;;;;17.54;33.87;100997.03;5020744;28;20030;-68
2022/12/13 05:50:10;;;;;;;8.18;4.85;;;;;;;17.58;33.72;100996.69;5021185;28;20132;-67
2022/12/13 05:52:35;;;;;;;7.68;4.70;;;;;;;17.63;33.68;100995.53;5020919;28;20127;-67
2022/12/13 05:55:01;;;;;;;7.90;4.50;;;;;;;17.70;33.87;100989.63;5020927;28;20041;-68
2022/12/13 05:57:26;;;;;;;6.80;3.90;;;;;;;17.72;33.59;100986.88;5020573;28;20099;-67
2022/12/13 05:59:51;;;;;;;7.70;4.15;;;;;;;17.78;33.90;100991.69;5020665;28;20076;-68
2022/12/13 06:02:16;;;;;;;7.38;4.43;;;;;;;17.80;33.41;100987.16;5021381;28;20031;-65
2022/12/13 06:04:42;;;;;;;6.80;4.68;;;;;;;17.82;33.60;100987.03;5020282;28;20033;-67
2022/12/13 06:07:08;;;;;;;6.55;3.92;;;;;;;17.85;33.49;100998.16;5020836;28;20041;-67
2022/12/13 06:09:33;;;;;;;7.28;4.25;;;;;;;17.89;33.85;100997.00;5020900;28;20405;-67
2022/12/13 06:11:58;;;;;;;8.30;4.20;;;;;;;17.90;33.84;101000.47;5019016;28;20041;-67
2022/12/13 06:14:23;;;;;;;7.47;3.55;;;;;;;17.92;33.57;100999.38;5020482;28;20061;-66
2022/12/13 06:16:50;;;;;;;8.60;4.70;;;;;;;17.92;33.57;100996.75;5020517;28;20036;-68
2022/12/13 06:19:16;;;;;;;7.05;4.00;;;;;;;17.97;33.49;100999.03;5020982;28;20033;-66
2022/12/13 06:21:41;;;;;;;7.53;3.80;;;;;;;17.98;33.77;101000.72;5020275;28;20414;-68
2022/12/13 06:24:07;;;;;;;7.37;4.03;;;;;;;18.00;33.72;100997.97;5019968;28;20037;-69
2022/12/13 06:26:32;;;;;;;7.78;4.00;;;;;;;18.00;33.55;100993.53;5023546;28;20334;-68
2022/12/13 06:28:58;;;;;;;7.93;3.83;;;;;;;18.02;33.61;101003.94;5024401;28;20075;-68
2022/12/13 06:31:23;;;;;;;7.05;3.88;;;;;;;18.02;33.51;101001.31;5024422;28;20037;-66
2022/12/13 06:33:49;;;;;;;8.25;4.15;;;;;;;18.02;33.40;100999.50;5024599;28;20037;-66
2022/12/13 06:36:14;;;;;;;8.32;4.40;;;;;;;17.99;33.83;100999.78;5024397;28;20417;-66
2022/12/13 06:38:40;;;;;;;9.52;4.15;;;;;;;18.03;33.87;101005.63;5024477;28;20033;-67
2022/12/13 06:41:07;;;;;;;8.32;4.72;;;;;;;17.99;33.53;100999.78;5024306;28;20056;-67
2022/12/13 06:43:32;;;;;;;8.82;4.63;;;;;;;18.01;33.66;101005.75;5021722;28;20512;-67
2022/12/13 06:45:57;;;;;;;8.85;4.25;;;;;;;17.98;33.29;101007.81;5024548;28;20033;-67
2022/12/13 06:48:23;;;;;;;8.60;4.77;;;;;;;18.00;33.83;101004.06;5024566;28;20087;-67
2022/12/13 06:50:48;;;;;;;7.30;4.20;;;;;;;18.00;33.76;101008.50;5038865;28;20278;-67
2022/12/13 06:53:13;;;;;;;7.00;4.53;;;;;;;17.99;33.60;101002.41;5023602;28;20381;-66
2022/12/13 06:55:39;;;;;;;7.10;4.57;;;;;;;18.00;33.34;101000.59;5024278;28;20029;-66
2022/12/13 06:58:04;;;;;;;9.65;4.47;;;;;;;17.97;33.56;100991.13;5023822;28;20170;-66
2022/12/13 07:00:29;;;;;;;6.30;4.07;;;;;;;17.98;33.62;100992.81;5024618;28;20438;-65
2022/12/13 07:02:55;;;;;;;8.23;4.60;;;;;;;17.95;33.89;100996.50;5024190;28;20041;-67
2022/12/13 07:05:21;;;;;;;6.47;4.30;;;;;;;17.96;33.62;100994.75;5023983;28;20064;-67
2022/12/13 07:07:46;;;;;;;10.32;4.70;;;;;;;17.99;33.46;100999.78;5024157;28;20042;-67
2022/12/13 07:10:12;;;;;;;7.38;4.38;;;;;;;17.97;33.77;100993.75;5023468;28;20968;-67
2022/12/13 07:12:37;;;;;;;7.80;4.20;;;;;;;18.00;33.65;100997.97;5023933;28;20037;-67
2022/12/13 07:15:02;;;;;;;9.45;4.38;;;;;;;18.00;33.84;101000.59;5023164;28;20041;-65
2022/12/13 07:17:28;;;;;;;9.85;4.40;;;;;;;18.02;33.68;100994.22;5024014;28;20120;-67
2022/12/13 07:19:53;;;;;;;6.75;4.35;;;;;;;18.00;33.36;100990.88;5023983;28;20397;-68
2022/12/13 07:22:18;;;;;;;7.83;4.97;;;;;;;18.01;33.21;100986.44;5023889;28;20584;-68
2022/12/13 07:24:44;;;;;;;9.73;5.50;;;;;;;18.05;33.70;101001.06;5023546;28;20262;-67
2022/12/13 07:27:09;;;;;;;8.33;5.00;;;;;;;18.04;33.30;100989.69;5023561;28;20588;-68
2022/12/13 07:29:34;;;;;;;7.43;4.63;;;;;;;18.03;33.91;100990.66;5023767;28;20304;-67
2022/12/13 07:31:59;;;;;;;9.43;5.15;;;;;;;18.02;33.91;100990.75;5023558;28;20029;-69
2022/12/13 07:34:25;;;;;;;6.75;4.07;;;;;;;18.05;34.09;100990.53;5023196;28;20041;-67
2022/12/13 07:36:50;;;;;;;8.87;4.93;;;;;;;18.04;33.90;100992.34;5022672;28;20049;-67
2022/12/13 07:39:15;;;;;;;7.22;4.85;;;;;;;18.06;34.32;100998.31;5023910;28;20270;-68
2022/12/13 07:41:41;;;;;;;9.02;4.93;;;;;;;18.07;34.35;101002.66;5023337;28;20037;-68
2022/12/13 07:44:06;;;;;;;9.23;4.78;;;;;;;18.10;34.29;101002.41;5023669;28;20037;-69
2022/12/13 07:46:31;;;;;;;7.97;4.60;;;;;;;18.11;34.42;101005.88;5023415;28;20048;-69
2022/12/13 07:48:56;;;;;;;8.48;4.30;;;;;;;18.15;34.73;101003.81;5023780;28;20278;-69
2022/12/13 07:51:22;;;;;;;7.75;4.40;;;;;;;18.15;34.82;101002.03;5022677;28;20029;-68
2022/12/13 07:53:47;;;;;;;8.18;4.60;;;;;;;18.21;35.07;101013.91;5023093;28;20195;-68
2022/12/13 07:56:12;;;;;;;6.97;4.50;;;;;;;18.22;35.38;101013.78;5023415;28;20294;-67
2022/12/13 07:58:39;;;;;;;7.82;4.47;;;;;;;18.22;35.28;101018.22;5022425;28;20037;-66
2022/12/13 08:01:07;;;;;;;10.40;4.60;;;;;;;18.21;35.30;101014.72;5023164;28;20421;-69
2022/12/13 08:03:33;;;;;;;7.63;4.55;;;;;;;18.24;35.13;101017.13;5022546;28;20431;-69
2022/12/13 08:06:05;;;;;;;11.32;4.82;;;;;;;18.22;35.50;101008.50;5022480;28;20055;-68
2022/12/13 08:08:31;;;;;;;8.52;4.65;;;;;;;18.25;35.22;101002.16;5022939;28;20044;-67
2022/12/13 08:11:04;;;;;;;7.88;4.72;;;;;;;18.27;35.60;101002.84;5021340;28;20079;-68
2022/12/13 08:13:30;;;;;;;8.73;5.13;;;;;;;18.29;35.23;101009.72;5020408;28;20874;-68
2022/12/13 08:16:05;;;;;;;7.72;4.93;;;;;;;18.26;34.88;101009.09;5021581;28;20090;-68
2022/12/13 08:18:30;;;;;;;9.38;5.43;;;;;;;18.23;34.60;101001.41;5021302;28;20029;-68
2022/12/13 08:21:04;;;;;;;8.65;5.30;;;;;;;18.22;34.92;101010.31;5023025;28;20091;-68
2022/12/13 08:23:32;;;;;;;9.77;4.90;;;;;;;18.21;35.31;101004.16;5022218;28;20039;-68
2022/12/13 08:25:58;;;;;;;10.85;4.82;;;;;;;18.24;35.33;101006.56;5022768;28;20034;-69
2022/12/13 08:28:24;;;;;;;8.45;4.97;;;;;;;18.27;35.16;101022.16;5021835;28;20231;-67
2022/12/13 08:30:50;;;;;;;8.13;4.97;;;;;;;18.24;34.95;101016.28;5022106;28;20048;-70
2022/12/13 08:33:16;;;;;;;8.57;5.20;;;;;;;18.31;35.21;101022.78;5022670;28;20035;-69
2022/12/13 08:35:41;;;;;;;7.53;4.72;;;;;;;18.33;34.95;101026.13;5020937;28;20104;-68
2022/12/13 08:38:06;;;;;;;8.18;4.40;;;;;;;18.33;34.97;101022.66;5022704;28;20469;-68
2022/12/13 08:40:32;;;;;;;7.72;4.60;;;;;;;18.32;35.06;101013.88;5021501;28;20060;-68
2022/12/13 08:42:57;;;;;;;11.00;4.82;;;;;;;18.37;34.82;101021.44;5022418;28;20381;-66
2022/12/13 08:45:23;;;;;;;8.98;5.10;;;;;;;18.37;34.76;101021.44;5021700;28;20030;-68
2022/12/13 08:47:48;;;;;;;8.85;5.20;;;;;;;18.36;34.67;101025.03;5018269;28;20035;-68
2022/12/13 08:50:14;;;;;;;9.15;4.50;;;;;;;18.35;35.10;101018.09;5020503;28;20041;-68
2022/12/13 08:52:41;;;;;;;8.00;4.75;;;;;;;18.34;35.33;101022.53;5021610;28;20781;-68
2022/12/13 08:55:11;;;;;;;8.40;4.80;;;;;;;18.28;34.83;101015.09;5022036;28;20454;-68
2022/12/13 08:57:37;;;;;;;8.75;4.63;;;;;;;18.33;34.77;101031.41;5021567;28;20044;-68
2022/12/13 09:00:07;;;;;;;8.27;5.25;;;;;;;18.33;34.81;101047.22;5021154;28;20034;-68
2022/12/13 09:02:33;;;;;;;9.57;5.05;;;;;;;18.34;34.94;101048.06;5020530;28;20033;-68
2022/12/13 09:04:58;;;;;;;11.55;5.10;;;;;;;18.32;34.82;101035.00;5021253;28;20036;-68
2022/12/13 09:07:23;;;;;;;8.18;4.72;;;;;;;18.31;34.63;101033.31;5021105;28;20034;-68
2022/12/13 09:09:48;;;;;;;7.75;4.95;;;;;;;18.31;34.74;101034.16;5021763;28;20491;-68
2022/12/13 09:12:14;;;;;;;10.57;5.22;;;;;;;18.31;34.96;101035.97;5020729;28;20136;-68
2022/12/13 09:14:39;;;;;;;9.55;4.80;;;;;;;18.27;34.80;101030.06;5021835;28;20040;-67
2022/12/13 09:17:04;;;;;;;7.35;4.55;;;;;;;18.27;34.53;101026.59;5021296;28;20077;-67
2022/12/13 09:19:30;;;;;;;10.10;5.68;;;;;;;18.26;34.64;101028.41;5021998;28;20037;-69
2022/12/13 09:21:55;;;;;;;7.28;5.03;;;;;;;18.29;34.63;101038.72;5021340;28;20041;-66
2022/12/13 09:24:20;;;;;;;9.15;4.93;;;;;;;18.27;34.73;101032.72;5021575;28;20060;-67
2022/12/13 09:26:46;;;;;;;8.45;5.20;;;;;;;18.28;34.99;101036.22;5020824;28;20124;-67
2022/12/13 09:29:15;;;;;;;9.85;5.63;;;;;;;18.26;34.88;101036.31;5021726;28;20493;-69
2022/12/13 09:31:41;;;;;;;8.55;5.28;;;;;;;18.28;34.73;101028.28;5021103;28;20035;-68
2022/12/13 09:34:09;;;;;;;7.38;4.90;;;;;;;18.25;34.94;101034.63;5019679;28;20370;-68
2022/12/13 09:36:34;;;;;;;7.82;4.93;;;;;;;18.26;34.78;101030.19;5021376;28;20455;-68
2022/12/13 09:38:59;;;;;;;8.98;5.35;;;;;;;18.28;34.59;101038.84;5021452;28;20068;-66
2022/12/13 09:41:48;;;;;;;9.93;5.50;;;;;;;18.28;34.99;101039.69;5021115;28;20037;-67
2022/12/13 09:44:23;;;;;;;9.65;5.40;;;;;;;18.23;35.10;101031.28;5020806;28;20037;-67
2022/12/13 09:46:51;;;;;;;8.73;5.00;;;;;;;18.27;34.84;101037.16;5020925;28;20037;-68
2022/12/13 09:49:29;;;;;;;8.82;4.65;;;;;;;18.26;34.93;101040.75;5021204;28;20100;-67
2022/12/13 09:51:57;;;;;;;7.68;4.88;;;;;;;18.25;34.91;101032.00;5002027;28;20086;-68
2022/12/13 09:54:23;;;;;;;8.55;4.80;;;;;;;18.28;34.84;101034.41;5020984;28;20029;-68
2022/12/13 09:56:54;;;;;;;9.40;5.00;;;;;;;18.27;34.98;101032.72;5021306;28;20041;-68
2022/12/13 09:59:27;;;;;;;9.07;5.07;;;;;;;18.27;34.98;101032.72;5021027;28;20776;-67
2022/12/13 10:01:52;;;;;;;7.90;4.68;;;;;;;18.26;35.05;101024.91;5020200;28;20110;-67
2022/12/13 10:04:18;;;;;;;8.32;4.45;;;;;;;18.28;35.10;101023.00;5020671;28;20116;-68
2022/12/13 10:06:44;;;;;;;9.80;5.47;;;;;;;18.31;34.72;101025.41;5020879;28;20626;-67
2022/12/13 10:09:12;;;;;;;7.82;5.05;;;;;;;18.32;34.97;101024.44;5021351;28;20033;-68
2022/12/13 10:11:47;;;;;;;7.63;4.57;;;;;;;18.29;34.90;101014.13;5020933;28;20116;-69
2022/12/13 10:14:18;;;;;;;8.88;4.70;;;;;;;18.29;35.25;101007.06;5020541;28;20519;-68
2022/12/13 10:16:52;;;;;;;8.70;5.32;;;;;;;18.31;35.03;101007.78;5020291;28;20063;-69
2022/12/13 10:19:25;;;;;;;8.43;4.90;;;;;;;18.32;35.01;101003.31;5012220;28;20087;-66
2022/12/13 10:21:51;;;;;;;10.25;5.38;;;;;;;18.31;35.30;100996.38;5020730;28;20033;-67
2022/12/13 10:24:26;;;;;;;9.15;5.10;;;;;;;18.33;35.17;101009.47;5021116;28;20067;-68
2022/12/13 10:26:52;;;;;;;9.65;5.20;;;;;;;18.35;35.13;101012.81;5021092;28;20033;-67
2022/12/13 10:29:17;;;;;;;7.60;4.63;;;;;;;18.37;35.19;101002.97;5001877;28;20072;-68
2022/12/13 10:31:47;;;;;;;9.05;5.32;;;;;;;18.36;34.90;100993.34;5019925;28;20099;-68
2022/12/13 10:34:21;;;;;;;8.88;5.38;;;;;;;18.31;34.78;100984.03;5020942;28;20045;-68
2022/12/13 10:36:46;;;;;;;7.38;4.53;;;;;;;18.36;34.97;100980.16;5020453;28;20113;-68
2022/12/13 10:39:19;;;;;;;7.55;4.82;;;;;;;18.36;34.99;100982.81;5020750;28;20430;-66
2022/12/13 10:41:46;;;;;;;8.85;5.30;;;;;;;18.37;35.03;100993.25;5020191;28;20034;-69
2022/12/13 10:44:11;;;;;;;10.63;5.40;;;;;;;18.38;35.19;100996.75;5020682;28;21201;-67
2022/12/13 10:47:09;;;;;;;10.97;5.50;;;;;;;18.39;35.25;100991.34;5019752;28;20064;-66
2022/12/13 10:49:50;;;;;;;7.38;4.63;;;;;;;18.37;35.33;100981.84;4971798;28;20343;-67
2022/12/13 10:52:31;;;;;;;10.00;5.67;;;;;;;18.38;34.65;100978.25;5011278;28;20835;-67
2022/12/13 10:55:01;;;;;;;9.52;5.57;;;;;;;18.39;34.86;100972.00;5020006;28;20041;-66
2022/12/13 10:57:26;;;;;;;9.73;5.47;;;;;;;18.37;35.02;100960.75;5020500;28;20041;-69
2022/12/13 10:59:52;;;;;;;9.93;5.68;;;;;;;18.39;34.98;100964.94;5020554;28;20040;-66
2022/12/13 11:02:37;;;;;;;9.88;5.30;;;;;;;18.38;34.93;100962.44;5020774;28;20397;-67
2022/12/13 11:05:25;;;;;;;10.18;5.30;;;;;;;18.40;34.71;100957.84;5020378;28;20037;-67
2022/12/13 11:07:51;;;;;;;9.15;5.43;;;;;;;18.39;34.86;100956.19;5020131;28;20124;-68
2022/12/13 11:10:24;;;;;;;9.15;5.65;;;;;;;18.37;34.65;100951.03;5019819;28;20504;-69
2022/12/13 11:12:50;;;;;;;10.20;5.80;;;;;;;18.37;34.50;100948.38;5022671;28;20470;-70
2022/12/13 11:15:18;;;;;;;11.75;5.90;;;;;;;18.38;34.73;100949.25;5023916;28;20033;-67
2022/12/13 11:17:49;;;;;;;9.35;5.22;;;;;;;18.39;35.04;100938.56;5023956;28;20132;-67
2022/12/13 11:20:19;;;;;;;8.50;5.28;;;;;;;18.39;35.33;100927.16;5023841;28;20037;-68
2022/12/13 11:22:45;;;;;;;8.00;4.97;;;;;;;18.41;34.97;100941.06;5022191;28;20056;-67
2022/12/13 11:25:20;;;;;;;8.07;5.10;;;;;;;18.42;35.29;100955.94;5023391;28;20509;-69
2022/12/13 11:28:24;;;;;;;18.02;5.72;;;;;;;18.43;34.98;100950.53;5019271;28;20025;-67
2022/12/13 11:31:40;;;;;;;9.43;5.55;;;;;;;18.45;34.92;100939.84;4967319;28;20050;-69